»·PEaware :: WAT390 KPDX-KBLI

WAT390 :: KPDX-KBLI

FLIGHT INFORMATION

Flight Status: Arrived
Operator:
Walker Air Transport
More flights by this operator :: More flights under this callsign
Pilot: Ewen S. (18928)
Aircraft: DEHAVILLAND DASH 8 400
(DH8D)
More flights by this aircraft type
Origin: KPDX Portland Intl
United States
Destination: KBLI Bellingham Intl
United States
More flights between these airports :: More routes between these airports
Route: PTLD2 BTG J1 SEA PAE MADEE4
File this flight plan on PilotEdge
Remarks:
Altitude:
(Current/Filed)
20,000ft
Speed:
(Current/Filed)
310kts
Departed: 22-Jan-23 09:24 AM
Arrived: 22-Jan-23 10:21 AM
Distance/Time
Traveled:
192nm/0:57
Distance/Time
To Go:
Arrived

Flight Plot

Page will automatically refresh every two minutes.

Flight plan parsing failed; only flown route is shown


Map Options




Map Legend


Flown Route
Filed Route
Departure Airport
Arrival Airport
Navaid (VOR, NDB)
Fix

Horizontal Profiles

Position Reports

Time Latitude Longitude Heading Altitude Ground
Speed
22-Jan-23 09:05 45.587379 -122.593910 11 39ft 0kts
22-Jan-23 09:06 45.587379 -122.593910 11 39ft 0kts
22-Jan-23 09:07 45.587379 -122.593910 11 39ft 0kts
22-Jan-23 09:08 45.587379 -122.593910 11 39ft 0kts
22-Jan-23 09:09 45.587379 -122.593910 11 39ft 0kts
22-Jan-23 09:10 45.587379 -122.593910 11 39ft 0kts
22-Jan-23 09:11 45.587379 -122.593910 11 39ft 0kts
22-Jan-23 09:12 45.587379 -122.593910 11 39ft 0kts
22-Jan-23 09:13 45.587379 -122.593910 11 39ft 0kts
22-Jan-23 09:14 45.587379 -122.593910 11 39ft 0kts
22-Jan-23 09:15 45.587259 -122.593946 11 39ft 2kts
22-Jan-23 09:16 45.586740 -122.593882 320 39ft 2kts
22-Jan-23 09:17 45.586635 -122.593714 302 39ft 0kts
22-Jan-23 09:18 45.586694 -122.593845 302 39ft 2kts
22-Jan-23 09:19 45.587326 -122.595621 291 39ft 15kts
22-Jan-23 09:20 45.589083 -122.600498 299 39ft 18kts
22-Jan-23 09:21 45.592123 -122.600795 45 39ft 26kts
22-Jan-23 09:22 45.594505 -122.597371 53 39ft 16kts
22-Jan-23 09:23 45.582689 -122.563963 110 586ft 172kts
22-Jan-23 09:24 45.589316 -122.494328 76 3173ft 193kts
22-Jan-23 09:25 45.602703 -122.419160 43 5515ft 196kts
22-Jan-23 09:26 45.641685 -122.426307 313 7892ft 168kts
22-Jan-23 09:27 45.671700 -122.473979 317 10372ft 160kts
22-Jan-23 09:28 45.701761 -122.520187 321 12768ft 157kts
22-Jan-23 09:29 45.731715 -122.565997 323 15008ft 161kts
22-Jan-23 09:30 45.769576 -122.587784 359 16968ft 161kts
22-Jan-23 09:31 45.814268 -122.580318 358 18687ft 164kts
22-Jan-23 09:32 45.860055 -122.572869 0 20271ft 167kts
22-Jan-23 09:33 45.913694 -122.564412 1 20550ft 220kts
22-Jan-23 09:34 45.980395 -122.553516 1 20534ft 256kts
22-Jan-23 09:35 46.053682 -122.541452 1 20524ft 270kts
22-Jan-23 09:36 46.130087 -122.528896 2 20513ft 277kts
22-Jan-23 09:37 46.207680 -122.516107 1 20491ft 280kts
22-Jan-23 09:38 46.284902 -122.503372 1 20504ft 283kts
22-Jan-23 09:39 46.363682 -122.490332 0 20500ft 284kts
22-Jan-23 09:40 46.441602 -122.477384 1 20497ft 279kts
22-Jan-23 09:41 46.514183 -122.465234 1 21751ft 247kts
22-Jan-23 09:42 46.579412 -122.454384 1 23213ft 224kts
22-Jan-23 09:43 46.647826 -122.443171 359 22613ft 260kts
22-Jan-23 09:44 46.720969 -122.430829 359 22606ft 266kts
22-Jan-23 09:45 46.795143 -122.418359 0 22601ft 270kts
22-Jan-23 09:46 46.869661 -122.405766 1 22605ft 267kts
22-Jan-23 09:47 46.942514 -122.393463 359 22606ft 265kts
22-Jan-23 09:48 47.016011 -122.381031 359 22609ft 267kts
22-Jan-23 09:49 47.087938 -122.368796 359 22609ft 261kts
22-Jan-23 09:50 47.159456 -122.356627 0 22619ft 264kts
22-Jan-23 09:51 47.232552 -122.344163 1 22623ft 267kts
22-Jan-23 09:52 47.304615 -122.331733 1 22612ft 266kts
22-Jan-23 09:53 47.376790 -122.319342 0 22605ft 264kts
22-Jan-23 09:54 47.449124 -122.307429 358 21638ft 262kts
22-Jan-23 09:55 47.518846 -122.303601 359 20885ft 262kts
22-Jan-23 09:56 47.594857 -122.298817 358 20189ft 275kts
22-Jan-23 09:57 47.672828 -122.293719 358 19390ft 285kts
22-Jan-23 09:58 47.750689 -122.288595 359 18379ft 277kts
22-Jan-23 09:59 47.826609 -122.283533 357 17371ft 274kts
22-Jan-23 10:00 47.901568 -122.278597 357 16379ft 272kts
22-Jan-23 10:01 47.976589 -122.293172 347 15391ft 279kts
22-Jan-23 10:02 48.054017 -122.316044 346 14395ft 286kts
22-Jan-23 10:03 48.129586 -122.342435 341 13425ft 285kts
22-Jan-23 10:04 48.200994 -122.377794 341 12536ft 257kts
22-Jan-23 10:05 48.266724 -122.409327 341 11716ft 244kts
22-Jan-23 10:06 48.332638 -122.440762 340 10756ft 265kts
22-Jan-23 10:07 48.402829 -122.474593 340 9430ft 250kts
22-Jan-23 10:08 48.466417 -122.505145 340 8263ft 238kts
22-Jan-23 10:09 48.530877 -122.536213 340 7374ft 246kts
22-Jan-23 10:10 48.596628 -122.568000 340 6468ft 247kts
22-Jan-23 10:11 48.662297 -122.599834 340 5646ft 245kts
22-Jan-23 10:12 48.726331 -122.630933 341 4947ft 239kts
22-Jan-23 10:13 48.788843 -122.660789 345 4795ft 239kts
22-Jan-23 10:14 48.856300 -122.648995 6 4209ft 248kts
22-Jan-23 10:15 48.913670 -122.631144 32 3034ft 164kts
22-Jan-23 10:16 48.926920 -122.574049 109 2394ft 155kts
22-Jan-23 10:17 48.894612 -122.538144 181 1669ft 136kts
22-Jan-23 10:18 48.855712 -122.538342 179 1050ft 138kts
22-Jan-23 10:19 48.818295 -122.537885 177 494ft 129kts
22-Jan-23 10:20 48.791154 -122.537437 178 165ft 24kts

Navigation Log

Ident Type
Flight plan parsing failed, navigation log unavailable